Time;durP1;ratioP1;P1;durP2;ratioP2;P2;SDS_P1;SDS_P2;PMS_P1;PMS_P2;Temp;Humidity;BMP_temperature;BMP_pressure;BME280_temperature;BME280_humidity;BME280_pressure;Samples;Min_cycle;Max_cycle;Signal;HPM_P1;HPM_P2
2023/01/28 00:00:20;;;;;;;;;;;;;;;6.11;60.68;102684.09;7365520;19;20659;-56
2023/01/28 00:02:46;;;;;;;;;;;;;;;6.08;61.01;102688.31;7367017;19;20621;-53
2023/01/28 00:05:11;;;;;;;;;;;;;;;6.04;60.70;102678.72;7369356;19;20611;-56
2023/01/28 00:07:37;;;;;;;;;;;;;;;6.03;60.68;102682.09;7365900;19;19926;-56
2023/01/28 00:10:02;;;;;;;;;;;;;;;6.00;60.73;102682.91;7368341;19;19915;-55
2023/01/28 00:12:28;;;;;;;;;;;;;;;5.96;60.58;102671.56;7369061;19;19962;-56
2023/01/28 00:14:53;;;;;;;;;;;;;;;5.95;60.58;102680.19;7366120;19;19923;-56
2023/01/28 00:17:19;;;;;;;;;;;;;;;5.93;60.73;102668.91;7365074;19;19926;-55
2023/01/28 00:19:44;;;;;;;;;;;;;;;5.89;60.98;102669.63;7364538;19;19918;-56
2023/01/28 00:22:09;;;;;;;;;;;;;;;5.85;60.75;102672.97;7363745;19;20255;-56
2023/01/28 00:24:34;;;;;;;;;;;;;;;5.82;60.91;102677.16;7361294;19;19986;-56
2023/01/28 00:27:00;;;;;;;;;;;;;;;5.78;61.03;102676.22;7363933;19;19915;-56
2023/01/28 00:29:25;;;;;;;;;;;;;;;5.75;61.21;102665.75;7362094;19;20450;-56
2023/01/28 00:31:51;;;;;;;;;;;;;;;5.74;61.18;102674.38;7358626;19;19918;-53
2023/01/28 00:34:16;;;;;;;;;;;;;;;5.71;61.27;102682.06;7364453;19;20339;-57
2023/01/28 00:36:42;;;;;;;;;;;;;;;5.71;61.53;102685.50;7367202;19;19945;-56
2023/01/28 00:39:10;;;;;;;;;;;;;;;5.72;61.54;102670.84;7362225;19;19915;-56
2023/01/28 00:41:36;;;;;;;;;;;;;;;5.73;61.59;102678.69;7362724;19;19922;-56
2023/01/28 00:44:01;;;;;;;;;;;;;;;5.75;61.96;102675.25;7365982;19;19934;-56
2023/01/28 00:46:26;;;;;;;;;;;;;;;5.77;62.12;102678.75;7366251;19;19928;-55
2023/01/28 00:48:52;;;;;;;;;;;;;;;5.78;62.22;102671.03;7364398;19;19939;-56
2023/01/28 00:51:18;;;;;;;;;;;;;;;5.79;61.95;102662.44;7365283;19;19918;-57
2023/01/28 00:53:44;;;;;;;;;;;;;;;5.82;62.01;102654.72;7366650;19;19923;-56
2023/01/28 00:56:11;;;;;;;;;;;;;;;5.84;61.89;102650.47;7364717;19;21271;-56
2023/01/28 00:58:36;;;;;;;;;;;;;;;5.87;62.31;102658.31;7360641;19;19915;-56
2023/01/28 01:01:08;;;;;;;;;;;;;;;5.88;62.47;102651.41;7365550;19;19914;-56
2023/01/28 01:03:33;;;;;;;;;;;;;;;5.90;62.27;102655.81;7362140;19;19919;-55
2023/01/28 01:05:59;;;;;;;;;;;;;;;5.92;62.00;102646.38;7367057;19;22855;-55
2023/01/28 01:08:33;;;;;;;;;;;;;;;5.92;62.09;102646.38;7363776;19;19950;-57
2023/01/28 01:10:59;;;;;;;;;;;;;;;5.93;61.91;102645.56;7364626;19;19939;-56
2023/01/28 01:13:24;;;;;;;;;;;;;;;5.94;62.06;102647.31;7365167;19;22595;-54
2023/01/28 01:15:49;;;;;;;;;;;;;;;5.95;61.95;102643.88;7362869;19;20647;-56
2023/01/28 01:18:15;;;;;;;;;;;;;;;5.95;62.30;102638.72;7362460;19;19918;-54
2023/01/28 01:20:44;;;;;;;;;;;;;;;5.95;62.18;102628.34;7365279;19;19986;-55
2023/01/28 01:23:09;;;;;;;;;;;;;;;5.96;62.37;102629.22;7361954;19;20486;-56
2023/01/28 01:25:35;;;;;;;;;;;;;;;5.96;62.35;102624.91;7365617;19;19933;-56
2023/01/28 01:28:00;;;;;;;;;;;;;;;5.97;62.28;102637.03;7363743;19;20601;-56
2023/01/28 01:30:26;;;;;;;;;;;;;;;5.97;62.41;102634.44;7365758;19;19930;-56
2023/01/28 01:32:51;;;;;;;;;;;;;;;5.99;62.18;102629.31;7362488;19;20333;-55
2023/01/28 01:35:16;;;;;;;;;;;;;;;5.99;62.76;102629.31;7363426;19;19918;-57
2023/01/28 01:37:43;;;;;;;;;;;;;;;6.01;62.31;102624.16;7360932;19;20021;-56
2023/01/28 01:40:09;;;;;;;;;;;;;;;6.02;62.89;102618.13;7365269;19;20255;-56
2023/01/28 01:42:34;;;;;;;;;;;;;;;6.03;62.67;102609.50;7360143;19;19939;-56
2023/01/28 01:45:04;;;;;;;;;;;;;;;6.05;62.71;102608.72;7365290;19;19914;-55
2023/01/28 01:47:40;;;;;;;;;;;;;;;6.06;63.15;102604.41;7363868;19;19930;-56
2023/01/28 01:50:12;;;;;;;;;;;;;;;6.09;62.52;102609.69;7363377;19;19922;-57
2023/01/28 01:52:37;;;;;;;;;;;;;;;6.09;62.94;102610.56;7362982;19;19914;-54
2023/01/28 01:55:05;;;;;;;;;;;;;;;6.11;62.86;102626.16;7363261;19;22097;-55
2023/01/28 01:57:33;;;;;;;;;;;;;;;6.13;63.02;102619.28;7360433;19;20601;-56
2023/01/28 02:00:04;;;;;;;;;;;;;;;6.14;63.34;102618.47;7363859;19;19931;-56
2023/01/28 02:02:34;;;;;;;;;;;;;;;6.16;63.48;102627.16;7349524;19;20008;-55
2023/01/28 02:04:59;;;;;;;;;;;;;;;6.18;63.17;102628.97;7363040;19;19926;-56
2023/01/28 02:07:25;;;;;;;;;;;;;;;6.15;63.49;102625.41;7360762;19;20339;-56
2023/01/28 02:09:51;;;;;;;;;;;;;;;6.23;63.47;102644.63;7358251;19;20086;-55
2023/01/28 02:12:20;;;;;;;;;;;;;;;6.24;63.68;102642.09;7365604;19;19938;-56
2023/01/28 02:15:14;;;;;;;;;;;;;;;6.26;63.34;102644.72;7364352;19;19921;-56
2023/01/28 02:17:40;;;;;;;;;;;;;;;6.21;63.75;102633.34;7261879;19;2004327;-56
2023/01/28 02:20:07;;;;;;;;;;;;;;;6.33;63.47;102650.94;7363266;19;19926;-56
2023/01/28 02:22:51;;;;;;;;;;;;;;;6.33;63.88;102646.63;7363885;19;19926;-56
2023/01/28 02:25:19;;;;;;;;;;;;;;;6.35;63.82;102652.75;7362400;19;19946;-56
2023/01/28 02:27:47;;;;;;;;;;;;;;;6.36;63.90;102651.91;7364971;19;19937;-55
2023/01/28 02:30:21;;;;;;;;;;;;;;;6.37;63.80;102652.78;7360828;19;20011;-55
2023/01/28 02:32:49;;;;;;;;;;;;;;;6.38;63.96;102660.59;7359787;19;19990;-54
2023/01/28 02:35:28;;;;;;;;;;;;;;;6.40;63.80;102658.06;7360897;19;19926;-56
2023/01/28 02:38:05;;;;;;;;;;;;;;;6.41;64.07;102652.91;7361915;19;20497;-56
2023/01/28 02:40:33;;;;;;;;;;;;;;;6.41;64.11;102655.50;7361989;19;19953;-56
2023/01/28 02:42:58;;;;;;;;;;;;;;;6.42;64.34;102646.84;7363461;19;19915;-56
2023/01/28 02:47:56;;;;;;;;;;;;;;;6.43;64.39;102648.59;7363781;19;19919;-57
2023/01/28 02:48:16;;;;;;;;;;;;;;;6.44;64.00;102642.59;7259637;19;2004681;-56
2023/01/28 02:50:47;;;;;;;;;;;;;;;6.45;64.20;102636.56;7361270;19;19926;-57
2023/01/28 02:53:42;;;;;;;;;;;;;;;6.46;64.42;102633.13;7362224;19;20358;-56
2023/01/28 02:56:11;;;;;;;;;;;;;;;6.48;64.53;102630.56;7253304;19;2004661;-54
2023/01/28 02:58:58;;;;;;;;;;;;;;;6.50;64.13;102618.53;7352635;19;19917;-56
2023/01/28 03:01:23;;;;;;;;;;;;;;;6.50;64.35;102622.00;7359410;19;19926;-56
2023/01/28 03:04:05;;;;;;;;;;;;;;;6.53;64.22;102617.69;7358800;19;19936;-56
2023/01/28 03:06:37;;;;;;;;;;;;;;;6.55;64.60;102610.84;7360411;19;19918;-56
2023/01/28 03:09:23;;;;;;;;;;;;;;;6.57;64.81;102598.78;7360869;19;19926;-56
2023/01/28 03:36:48;;;;;;;;;;;;;;;6.64;64.80;102626.63;7356260;19;19994;-55
2023/01/28 03:39:13;;;;;;;;;;;;;;;6.63;64.73;102607.56;7355585;19;20387;-55
2023/01/28 03:41:38;;;;;;;;;;;;;;;6.64;65.03;102611.03;7361571;19;19919;-56
2023/01/28 03:46:47;;;;;;;;;;;;;;;6.62;64.79;102598.03;7361500;19;19934;-56
2023/01/28 03:49:14;;;;;;;;;;;;;;;6.61;64.98;102604.06;7354439;19;19942;-56
2023/01/28 03:51:39;;;;;;;;;;;;;;;6.62;64.99;102615.34;7358503;19;19927;-56
2023/01/28 03:54:05;;;;;;;;;;;;;;;6.61;65.31;102621.38;7358049;19;19938;-56
2023/01/28 03:56:36;;;;;;;;;;;;;;;6.60;64.92;102620.50;7358806;19;19923;-56
2023/01/28 03:59:02;;;;;;;;;;;;;;;6.60;65.31;102614.44;7355304;19;19952;-57
2023/01/28 04:01:27;;;;;;;;;;;;;;;6.60;65.64;102610.13;7357342;19;20325;-57
2023/01/28 04:03:52;;;;;;;;;;;;;;;6.60;65.62;102610.13;7334425;19;20433;-56
2023/01/28 04:06:18;;;;;;;;;;;;;;;6.60;65.33;102614.44;7358156;19;19923;-56
2023/01/28 04:08:51;;;;;;;;;;;;;;;6.59;65.61;102613.56;7359043;19;19986;-56
2023/01/28 04:11:19;;;;;;;;;;;;;;;6.59;65.22;102604.88;7355725;19;19925;-54
2023/01/28 04:13:45;;;;;;;;;;;;;;;6.58;65.56;102616.09;7358903;19;20457;-56
2023/01/28 04:16:10;;;;;;;;;;;;;;;6.57;65.21;102607.44;7362319;19;19929;-56
2023/01/28 04:18:36;;;;;;;;;;;;;;;6.57;65.67;102603.97;7361872;19;19918;-56
2023/01/28 04:21:01;;;;;;;;;;;;;;;6.56;65.71;102612.59;7348359;19;19914;-55
2023/01/28 04:23:28;;;;;;;;;;;;;;;6.56;65.71;102608.28;7367312;19;19926;-56
2023/01/28 04:25:53;;;;;;;;;;;;;;;6.56;65.40;102617.78;7363457;19;19978;-56
2023/01/28 04:28:19;;;;;;;;;;;;;;;6.55;65.61;102610.84;7364133;19;19922;-56
2023/01/28 04:30:44;;;;;;;;;;;;;;;6.55;66.04;102605.66;7368203;19;19914;-55
2023/01/28 04:33:09;;;;;;;;;;;;;;;6.55;66.00;102614.31;7365895;19;19922;-53
2023/01/28 04:35:34;;;;;;;;;;;;;;;6.57;66.39;102609.16;7365491;19;19922;-56
2023/01/28 04:38:00;;;;;;;;;;;;;;;6.57;66.18;102616.94;7366119;19;19942;-56
2023/01/28 04:40:25;;;;;;;;;;;;;;;6.57;66.20;102616.94;7358774;19;19939;-56
2023/01/28 04:42:56;;;;;;;;;;;;;;;6.59;65.99;102612.66;7367337;19;20523;-56
2023/01/28 04:45:22;;;;;;;;;;;;;;;6.57;66.40;102615.22;7365326;19;20690;-56
2023/01/28 04:47:47;;;;;;;;;;;;;;;6.58;66.18;102623.88;7367803;19;19946;-56
2023/01/28 04:50:12;;;;;;;;;;;;;;;6.57;66.43;102635.13;7365208;19;19986;-55
2023/01/28 04:52:38;;;;;;;;;;;;;;;6.57;66.02;102624.72;7366385;19;19930;-57
2023/01/28 04:55:03;;;;;;;;;;;;;;;6.55;66.23;102623.81;7363344;19;19942;-57
2023/01/28 04:57:28;;;;;;;;;;;;;;;6.55;66.39;102627.31;7367392;19;19939;-56
2023/01/28 04:59:53;;;;;;;;;;;;;;;6.55;66.28;102622.09;7363827;19;19954;-56
2023/01/28 05:02:19;;;;;;;;;;;;;;;6.53;66.38;102626.34;7366254;19;19918;-54
2023/01/28 05:04:44;;;;;;;;;;;;;;;6.55;66.51;102636.81;7364051;19;19914;-55
2023/01/28 05:07:09;;;;;;;;;;;;;;;6.55;66.63;102647.19;7364667;19;19927;-55
2023/01/28 05:09:35;;;;;;;;;;;;;;;6.55;66.69;102647.19;7363277;19;20395;-56
2023/01/28 05:12:01;;;;;;;;;;;;;;;6.55;66.96;102647.19;7361554;19;19919;-56
2023/01/28 05:14:26;;;;;;;;;;;;;;;6.56;67.18;102633.38;7364253;19;19923;-55
2023/01/28 05:16:51;;;;;;;;;;;;;;;6.56;66.82;102639.44;7365516;19;19926;-56
2023/01/28 05:19:16;;;;;;;;;;;;;;;6.56;66.81;102646.34;7362680;19;19915;-54
2023/01/28 05:21:41;;;;;;;;;;;;;;;6.55;67.28;102642.88;7364437;19;19914;-56
2023/01/28 05:24:07;;;;;;;;;;;;;;;6.56;67.24;102643.75;7366201;19;19914;-56
2023/01/28 05:26:32;;;;;;;;;;;;;;;6.57;67.40;102645.50;7359671;19;19918;-56
2023/01/28 05:28:58;;;;;;;;;;;;;;;6.56;67.62;102652.41;7364919;19;19926;-56
2023/01/28 05:31:23;;;;;;;;;;;;;;;6.57;67.59;102653.28;7360241;19;20647;-54
2023/01/28 05:33:48;;;;;;;;;;;;;;;6.55;67.82;102658.44;7366912;19;20614;-53
2023/01/28 05:36:13;;;;;;;;;;;;;;;6.55;67.61;102657.56;7362046;19;19919;-56
2023/01/28 05:38:39;;;;;;;;;;;;;;;6.54;67.93;102661.88;7364243;19;19925;-56
2023/01/28 05:41:04;;;;;;;;;;;;;;;6.52;67.59;102658.34;7363131;19;19939;-55
2023/01/28 05:43:29;;;;;;;;;;;;;;;6.52;68.02;102653.16;7365918;19;20605;-56
2023/01/28 05:45:54;;;;;;;;;;;;;;;6.51;68.14;102641.03;7366254;19;19959;-55
2023/01/28 05:48:20;;;;;;;;;;;;;;;6.52;68.14;102636.72;7363103;19;19950;-55
2023/01/28 05:50:48;;;;;;;;;;;;;;;6.52;68.11;102636.72;7365232;19;19910;-57
2023/01/28 05:53:13;;;;;;;;;;;;;;;6.51;67.84;102643.63;7362240;19;19918;-54
2023/01/28 05:55:38;;;;;;;;;;;;;;;6.49;68.40;102643.59;7365011;19;19943;-56
2023/01/28 05:58:04;;;;;;;;;;;;;;;6.49;68.36;102640.13;7362081;19;19922;-57
2023/01/28 06:00:29;;;;;;;;;;;;;;;6.47;68.35;102637.47;7364487;19;19944;-54
2023/01/28 06:02:54;;;;;;;;;;;;;;;6.46;68.46;102634.84;7364333;19;19923;-56
2023/01/28 06:05:20;;;;;;;;;;;;;;;6.44;68.18;102642.59;7362144;19;19921;-56
2023/01/28 06:07:45;;;;;;;;;;;;;;;6.44;68.30;102637.41;7361447;19;19922;-54
2023/01/28 06:10:11;;;;;;;;;;;;;;;6.42;68.08;102630.41;7364501;19;20494;-55
2023/01/28 06:12:36;;;;;;;;;;;;;;;6.40;68.34;102643.34;7361687;19;20480;-57
2023/01/28 06:15:01;;;;;;;;;;;;;;;6.40;68.37;102645.94;7362759;19;20378;-55
2023/01/28 06:17:26;;;;;;;;;;;;;;;6.40;68.39;102642.47;7360185;19;20362;-55
2023/01/28 06:19:52;;;;;;;;;;;;;;;6.42;68.79;102633.00;7361879;19;19925;-56
2023/01/28 06:22:17;;;;;;;;;;;;;;;6.42;68.74;102641.66;7361609;19;20243;-56
2023/01/28 06:24:42;;;;;;;;;;;;;;;6.43;68.70;102635.63;7362011;19;20018;-55
2023/01/28 06:27:07;;;;;;;;;;;;;;;6.45;69.00;102626.19;7363277;19;19918;-57
2023/01/28 06:29:33;;;;;;;;;;;;;;;6.45;68.81;102631.38;7360963;19;19914;-54
2023/01/28 06:31:58;;;;;;;;;;;;;;;6.47;68.98;102634.88;7362638;19;19914;-56
2023/01/28 06:34:23;;;;;;;;;;;;;;;6.47;69.12;102634.88;7361064;19;20016;-57
2023/01/28 06:36:49;;;;;;;;;;;;;;;6.49;68.88;102635.81;7362564;19;19915;-56
2023/01/28 06:39:15;;;;;;;;;;;;;;;6.50;68.95;102634.09;7356337;19;19914;-56
2023/01/28 06:41:40;;;;;;;;;;;;;;;6.52;68.94;102636.72;7363282;19;19998;-56
2023/01/28 06:44:05;;;;;;;;;;;;;;;6.53;69.38;102644.53;7363537;19;19922;-56
2023/01/28 06:46:30;;;;;;;;;;;;;;;6.56;69.40;102638.56;7359152;19;19914;-56
2023/01/28 06:48:56;;;;;;;;;;;;;;;6.56;69.30;102622.97;7365228;19;19926;-55
2023/01/28 06:51:21;;;;;;;;;;;;;;;6.58;69.58;102626.47;7360398;19;21207;-56
2023/01/28 06:53:46;;;;;;;;;;;;;;;6.59;69.52;102620.44;7361459;19;19923;-55
2023/01/28 06:56:11;;;;;;;;;;;;;;;6.60;69.66;102611.84;7353781;19;19953;-57
2023/01/28 06:58:37;;;;;;;;;;;;;;;6.60;69.42;102614.44;7346930;19;19955;-56
2023/01/28 07:01:02;;;;;;;;;;;;;;;6.60;69.30;102622.22;7362590;19;19925;-57
2023/01/28 07:03:28;;;;;;;;;;;;;;;6.60;69.60;102610.13;7360648;19;19923;-55
2023/01/28 07:05:53;;;;;;;;;;;;;;;6.60;69.56;102624.81;7357509;19;19914;-56
2023/01/28 07:08:18;;;;;;;;;;;;;;;6.60;69.41;102624.81;7360350;19;19924;-56
2023/01/28 07:10:43;;;;;;;;;;;;;;;6.61;69.31;102616.19;7360195;19;19942;-56
2023/01/28 07:13:09;;;;;;;;;;;;;;;6.61;69.71;102613.59;7360480;19;19922;-56
2023/01/28 07:15:35;;;;;;;;;;;;;;;6.61;69.69;102611.88;7360967;19;19935;-55
2023/01/28 07:18:00;;;;;;;;;;;;;;;6.62;69.33;102612.75;7355739;19;19915;-56
2023/01/28 07:20:25;;;;;;;;;;;;;;;6.62;69.43;102612.75;7360933;19;19926;-56
2023/01/28 07:22:51;;;;;;;;;;;;;;;6.62;69.69;102617.94;7358624;19;19935;-56
2023/01/28 07:25:16;;;;;;;;;;;;;;;6.62;70.20;102607.56;7361962;19;19974;-56
2023/01/28 07:27:48;;;;;;;;;;;;;;;6.62;70.10;102613.63;7355556;19;19918;-56
2023/01/28 07:30:13;;;;;;;;;;;;;;;6.60;69.99;102611.84;7360977;19;19943;-55
2023/01/28 07:32:39;;;;;;;;;;;;;;;6.60;70.01;102609.25;7359522;19;19926;-56
2023/01/28 07:35:04;;;;;;;;;;;;;;;6.59;70.10;102617.84;7351357;19;19934;-56
2023/01/28 07:37:29;;;;;;;;;;;;;;;6.59;70.09;102623.03;7359674;19;19922;-54
2023/01/28 07:39:55;;;;;;;;;;;;;;;6.61;69.89;102621.38;7359418;19;19923;-56
2023/01/28 07:42:20;;;;;;;;;;;;;;;6.59;70.18;102617.84;7359786;19;19910;-56
2023/01/28 07:44:45;;;;;;;;;;;;;;;6.59;70.13;102626.53;7359412;19;20611;-54
2023/01/28 07:47:10;;;;;;;;;;;;;;;6.61;69.99;102616.19;7351473;19;20271;-56
2023/01/28 07:49:38;;;;;;;;;;;;;;;6.61;70.09;102617.06;7357416;19;20011;-56
2023/01/28 07:52:03;;;;;;;;;;;;;;;6.63;69.88;102619.69;7367389;19;19926;-56
2023/01/28 07:54:29;;;;;;;;;;;;;;;6.64;70.10;102614.53;7362968;19;19926;-55
2023/01/28 07:56:54;;;;;;;;;;;;;;;6.66;70.10;102624.97;7367817;19;19918;-54
2023/01/28 07:59:19;;;;;;;;;;;;;;;6.68;70.07;102633.66;7363839;19;20420;-56
2023/01/28 08:01:44;;;;;;;;;;;;;;;6.69;70.03;102635.41;7361486;19;20260;-56
2023/01/28 08:04:10;;;;;;;;;;;;;;;6.70;70.28;102627.66;7365341;19;19976;-56
2023/01/28 08:06:36;;;;;;;;;;;;;;;6.72;70.42;102641.56;7359603;19;19914;-56
2023/01/28 08:09:05;;;;;;;;;;;;;;;6.73;70.01;102643.31;7364967;19;19929;-54
2023/01/28 08:11:30;;;;;;;;;;;;;;;6.73;70.07;102642.44;7365745;19;19910;-54
2023/01/28 08:13:56;;;;;;;;;;;;;;;6.75;70.51;102635.56;7366792;19;19922;-54
2023/01/28 08:16:21;;;;;;;;;;;;;;;6.76;70.64;102638.19;7364550;19;19923;-55
2023/01/28 08:18:46;;;;;;;;;;;;;;;6.79;70.43;102646.88;7362587;19;19922;-55
2023/01/28 08:21:11;;;;;;;;;;;;;;;6.80;70.30;102644.34;7359418;19;19923;-56
2023/01/28 08:23:37;;;;;;;;;;;;;;;6.82;70.79;102647.84;7346970;19;19922;-56
2023/01/28 08:26:02;;;;;;;;;;;;;;;6.83;70.54;102644.41;7364745;19;19926;-56
2023/01/28 08:28:27;;;;;;;;;;;;;;;6.84;70.56;102646.16;7366555;19;20654;-56
2023/01/28 08:30:58;;;;;;;;;;;;;;;6.86;70.87;102660.06;7363460;19;19927;-56
2023/01/28 08:33:23;;;;;;;;;;;;;;;6.87;70.68;102659.22;7365183;19;19951;-55
2023/01/28 08:35:48;;;;;;;;;;;;;;;6.89;70.46;102660.13;7363548;19;21458;-56
2023/01/28 08:38:16;;;;;;;;;;;;;;;6.91;70.75;102663.66;7365627;19;20316;-55
2023/01/28 08:40:42;;;;;;;;;;;;;;;6.93;70.99;102656.75;7364432;19;19921;-55
2023/01/28 08:43:07;;;;;;;;;;;;;;;6.94;70.76;102663.72;7364349;19;19918;-56
2023/01/28 08:45:32;;;;;;;;;;;;;;;6.95;70.76;102656.81;7365569;19;19946;-55
2023/01/28 08:48:01;;;;;;;;;;;;;;;6.96;70.93;102651.66;7364569;19;19943;-56
2023/01/28 08:50:28;;;;;;;;;;;;;;;6.96;71.07;102662.03;7364576;19;20029;-55
2023/01/28 08:52:54;;;;;;;;;;;;;;;6.98;70.58;102659.47;7364958;19;19922;-56
2023/01/28 08:55:19;;;;;;;;;;;;;;;6.97;71.25;102650.81;7364026;19;20526;-55
2023/01/28 08:57:45;;;;;;;;;;;;;;;6.99;70.87;102656.94;7362731;19;19943;-56
2023/01/28 09:00:10;;;;;;;;;;;;;;;6.99;71.05;102646.53;7363166;19;19928;-55
2023/01/28 09:02:36;;;;;;;;;;;;;;;6.96;70.94;102643.00;7361200;19;19923;-56
2023/01/28 09:05:02;;;;;;;;;;;;;;;7.02;71.39;102657.00;7362244;19;19923;-56
2023/01/28 09:07:27;;;;;;;;;;;;;;;7.05;71.44;102655.31;7361274;19;20013;-56
2023/01/28 09:09:52;;;;;;;;;;;;;;;7.08;71.69;102655.38;7362973;19;19926;-56
2023/01/28 09:12:18;;;;;;;;;;;;;;;7.12;71.78;102660.69;7357275;19;19914;-55
2023/01/28 09:14:43;;;;;;;;;;;;;;;7.16;71.32;102669.44;7359209;19;19934;-56
2023/01/28 09:17:08;;;;;;;;;;;;;;;7.21;71.40;102665.22;7360080;19;19918;-56
2023/01/28 09:19:33;;;;;;;;;;;;;;;7.24;71.64;102662.66;7356805;19;19938;-54
2023/01/28 09:21:59;;;;;;;;;;;;;;;7.29;71.65;102666.25;7362274;19;20716;-56
2023/01/28 09:24:24;;;;;;;;;;;;;;;7.33;71.61;102669.78;7361033;19;20342;-56
2023/01/28 09:26:49;;;;;;;;;;;;;;;7.36;71.49;102667.28;7361031;19;19922;-56
2023/01/28 09:29:15;;;;;;;;;;;;;;;7.39;71.70;102660.41;7360827;19;20412;-54
2023/01/28 09:31:41;;;;;;;;;;;;;;;7.42;71.78;102663.09;7362590;19;19966;-55
2023/01/28 09:34:07;;;;;;;;;;;;;;;7.44;71.73;102671.78;7359245;19;19986;-56
2023/01/28 09:36:32;;;;;;;;;;;;;;;7.48;71.31;102678.81;7363121;19;20678;-57
2023/01/28 09:38:57;;;;;;;;;;;;;;;7.50;71.62;102677.13;7358448;19;20303;-55
2023/01/28 09:41:25;;;;;;;;;;;;;;;7.51;71.27;102676.28;7358221;19;20181;-54
2023/01/28 09:44:00;;;;;;;;;;;;;;;7.52;71.63;102675.44;7355708;19;19938;-55
2023/01/28 09:46:31;;;;;;;;;;;;;;;7.55;71.42;102674.59;7362611;19;19922;-56
2023/01/28 09:48:57;;;;;;;;;;;;;;;7.59;71.45;102685.97;7363766;19;20848;-54
2023/01/28 09:51:29;;;;;;;;;;;;;;;7.62;71.40;102686.91;7356888;19;19937;-55
2023/01/28 09:53:56;;;;;;;;;;;;;;;7.64;71.74;102684.34;7362842;19;20425;-56
2023/01/28 09:56:24;;;;;;;;;;;;;;;7.67;71.76;102689.63;7364107;19;19923;-56
2023/01/28 09:58:50;;;;;;;;;;;;;;;7.67;71.79;102693.09;7362199;19;19938;-56
2023/01/28 10:01:30;;;;;;;;;;;;;;;7.69;71.56;102698.31;7358772;19;19911;-56
2023/01/28 10:04:04;;;;;;;;;;;;;;;7.71;71.59;102701.84;7359850;19;19922;-56
2023/01/28 10:06:32;;;;;;;;;;;;;;;7.72;71.57;102711.38;7350146;19;19929;-55
2023/01/28 10:08:58;;;;;;;;;;;;;;;7.72;71.73;102708.78;7354409;19;19923;-56
2023/01/28 10:11:32;;;;;;;;;;;;;;;7.76;71.26;102721.03;7353542;19;19921;-56
2023/01/28 10:14:16;;;;;;;;;;;;;;;7.77;71.15;102715.84;7355828;19;19922;-55
2023/01/28 10:16:49;;;;;;;;;;;;;;;7.80;71.31;102722.81;7360460;19;20246;-56
2023/01/28 10:19:22;;;;;;;;;;;;;;;7.84;71.42;102719.44;7358185;19;19964;-56
2023/01/28 10:21:52;;;;;;;;;;;;;;;7.88;71.54;102720.38;7356215;19;19946;-57
2023/01/28 10:24:30;;;;;;;;;;;;;;;7.91;71.54;102718.75;7358359;19;19919;-56
2023/01/28 10:26:56;;;;;;;;;;;;;;;7.96;71.76;102717.13;7360722;19;19918;-56
2023/01/28 10:29:24;;;;;;;;;;;;;;;8.00;71.57;102716.28;7363222;19;19918;-56
2023/01/28 10:31:52;;;;;;;;;;;;;;;8.04;71.69;102718.13;7361789;19;19926;-56
2023/01/28 10:34:17;;;;;;;;;;;;;;;8.10;71.89;102721.69;7363829;19;20002;-55
2023/01/28 10:36:42;;;;;;;;;;;;;;;8.14;71.53;102719.19;7360019;19;20010;-56
2023/01/28 10:39:11;;;;;;;;;;;;;;;8.18;71.53;102725.34;7361011;19;19927;-56
2023/01/28 10:41:36;;;;;;;;;;;;;;;8.24;71.96;102728.94;7339931;19;20650;-56
2023/01/28 10:44:01;;;;;;;;;;;;;;;8.28;71.61;102716.84;7351900;19;19926;-56
2023/01/28 10:46:32;;;;;;;;;;;;;;;8.29;71.33;102716.00;7358922;19;19934;-54
2023/01/28 10:49:17;;;;;;;;;;;;;;;8.32;71.45;102708.25;7364974;19;19943;-56
2023/01/28 10:51:42;;;;;;;;;;;;;;;8.35;71.58;102703.09;7357793;19;19915;-56
2023/01/28 10:54:16;;;;;;;;;;;;;;;8.37;71.41;102704.06;7357769;19;19937;-56
2023/01/28 10:56:42;;;;;;;;;;;;;;;8.42;71.73;102701.53;7362237;19;19921;-56
2023/01/28 10:59:26;;;;;;;;;;;;;;;8.47;71.88;102700.78;7364363;19;19926;-55
2023/01/28 11:01:53;;;;;;;;;;;;;;;8.54;71.92;102684.41;7361988;19;20350;-55
2023/01/28 11:04:23;;;;;;;;;;;;;;;8.59;71.54;102676.66;7344658;19;19927;-56
2023/01/28 11:06:57;;;;;;;;;;;;;;;8.64;71.46;102679.34;7361753;19;20383;-57
2023/01/28 11:09:24;;;;;;;;;;;;;;;8.70;71.80;102671.63;7362992;19;19910;-56
2023/01/28 11:11:49;;;;;;;;;;;;;;;8.74;71.90;102670.84;7360250;19;21133;-56
2023/01/28 11:14:25;;;;;;;;;;;;;;;8.78;71.74;102657.88;7364007;19;19918;-56
2023/01/28 11:16:52;;;;;;;;;;;;;;;8.83;71.88;102656.25;7362657;19;19935;-54
2023/01/28 11:19:18;;;;;;;;;;;;;;;8.91;72.03;102653.72;7361539;19;19998;-55
2023/01/28 11:21:47;;;;;;;;;;;;;;;8.96;72.03;102662.50;7361160;19;19994;-55
2023/01/28 11:24:14;;;;;;;;;;;;;;;9.02;72.07;102657.41;7359857;19;19919;-56
2023/01/28 11:26:44;;;;;;;;;;;;;;;9.09;72.00;102661.84;7360917;19;19935;-56
2023/01/28 11:29:28;;;;;;;;;;;;;;;9.17;71.84;102655.84;7360496;19;19919;-56
2023/01/28 11:31:54;;;;;;;;;;;;;;;9.24;71.89;102673.34;7361232;19;19918;-56
2023/01/28 11:34:19;;;;;;;;;;;;;;;9.31;71.69;102677.78;7358394;19;19930;-56
2023/01/28 11:36:52;;;;;;;;;;;;;;;9.35;71.53;102672.63;7361208;19;19927;-56
2023/01/28 11:39:24;;;;;;;;;;;;;;;9.39;71.46;102683.13;7359032;19;21771;-56
2023/01/28 11:41:50;;;;;;;;;;;;;;;9.39;71.35;102678.78;7361598;19;19918;-56
2023/01/28 11:44:15;;;;;;;;;;;;;;;9.40;71.32;102688.34;7361789;19;20439;-57
2023/01/28 11:46:54;;;;;;;;;;;;;;;9.39;70.99;102678.78;7350279;19;19925;-56
2023/01/28 11:49:38;;;;;;;;;;;;;;;9.40;71.03;102679.66;7361441;19;19930;-56
2023/01/28 11:52:06;;;;;;;;;;;;;;;9.38;70.92;102676.13;7357851;19;19919;-56
2023/01/28 11:54:54;;;;;;;;;;;;;;;9.37;71.07;102670.03;7356182;19;20759;-56
2023/01/28 11:57:24;;;;;;;;;;;;;;;9.35;71.12;102656.13;7361126;19;19927;-57
2023/01/28 11:59:58;;;;;;;;;;;;;;;9.32;71.01;102658.69;7353874;19;19918;-56
2023/01/28 12:02:23;;;;;;;;;;;;;;;9.30;70.98;102657.78;7360117;19;20395;-55
2023/01/28 12:04:58;;;;;;;;;;;;;;;9.28;70.71;102656.91;7358058;19;19919;-55
2023/01/28 12:07:36;;;;;;;;;;;;;;;9.26;70.81;102653.38;7359094;19;19926;-57
2023/01/28 12:10:07;;;;;;;;;;;;;;;9.24;71.10;102649.88;7356202;19;19918;-56
2023/01/28 12:12:51;;;;;;;;;;;;;;;9.22;70.71;102638.53;7360375;19;19936;-56
2023/01/28 12:15:36;;;;;;;;;;;;;;;9.19;70.93;102643.72;7359519;19;19923;-56
2023/01/28 12:18:20;;;;;;;;;;;;;;;9.18;71.03;102649.81;7357825;19;19942;-56
2023/01/28 12:20:48;;;;;;;;;;;;;;;9.19;70.99;102638.53;7355307;19;19922;-57
2023/01/28 12:23:26;;;;;;;;;;;;;;;9.21;71.02;102636.81;7355621;19;19942;-55
2023/01/28 12:25:51;;;;;;;;;;;;;;;9.22;71.22;102625.50;7355256;19;19929;-55
2023/01/28 12:28:19;;;;;;;;;;;;;;;9.25;71.43;102631.66;7354418;19;22560;-56
2023/01/28 12:30:44;;;;;;;;;;;;;;;9.28;71.44;102623.00;7359918;19;20430;-55
2023/01/28 12:33:10;;;;;;;;;;;;;;;9.30;71.47;102616.94;7360037;19;21344;-56
2023/01/28 12:35:50;;;;;;;;;;;;;;;9.32;71.26;102614.34;7359813;19;19915;-56
2023/01/28 12:38:34;;;;;;;;;;;;;;;9.35;71.08;102614.41;7365681;19;20353;-56
2023/01/28 12:41:08;;;;;;;;;;;;;;;9.37;71.01;102604.84;7366597;19;19918;-56
2023/01/28 12:43:51;;;;;;;;;;;;;;;9.38;71.05;102597.91;7366583;19;19923;-55
2023/01/28 12:46:35;;;;;;;;;;;;;;;9.39;71.45;102597.06;7363647;19;19919;-53
2023/01/28 12:49:06;;;;;;;;;;;;;;;9.40;71.33;102594.47;7367676;19;19990;-56
2023/01/28 12:51:52;;;;;;;;;;;;;;;9.42;71.40;102590.16;7362083;19;19923;-55
2023/01/28 12:54:26;;;;;;;;;;;;;;;9.41;71.31;102588.41;7365174;19;19933;-56
2023/01/28 12:56:53;;;;;;;;;;;;;;;9.42;71.24;102584.94;7363855;19;19922;-56
2023/01/28 12:59:24;;;;;;;;;;;;;;;9.44;71.48;102583.25;7360081;19;19950;-56
2023/01/28 13:01:55;;;;;;;;;;;;;;;9.45;71.21;102590.19;7365141;19;19932;-56
2023/01/28 13:04:28;;;;;;;;;;;;;;;9.47;71.10;102591.06;7364454;19;19930;-56
2023/01/28 13:07:16;;;;;;;;;;;;;;;9.49;71.16;102591.13;7363774;19;20332;-57
2023/01/28 13:09:52;;;;;;;;;;;;;;;9.50;71.00;102598.06;7361715;19;19922;-55
2023/01/28 13:12:19;;;;;;;;;;;;;;;9.52;71.17;102589.41;7352916;19;19923;-56
2023/01/28 13:14:44;;;;;;;;;;;;;;;9.53;71.09;102583.34;7363659;19;20431;-56
2023/01/28 13:17:10;;;;;;;;;;;;;;;9.54;71.20;102579.88;7360945;19;19927;-56